MiSS Christi — WBM6513 — position and weather

sailwx.info

Track history (hours):
 
Tides and Currents Weather Stations Pressure Air Temp Water Temp Dewpoint Dewpoint Depression Visibility Wind Speed Wind Dir Waves Ship Positions

MiSS Christi

Owner: MISS CHRISTI INC, WEST HILLS, CA. More information available from US FCC via Universal Licensing System and Coast Guard Vessel Documentation Center.

Last reported at 2018-Jun-20 15:14 UTC. Time now 2018-Jun-20 19:05 UTC.
Position N 33°36' W 118°20'.

Length 15 m; draft 1.5 m.

Type: Passenger vessel. MMSI: 367311590.

Date/timePositionNaut miles runAvg speedWind from/ knotsBaromVisibWave heightAir tempDewpointWater temp
2018-Jun-20 15:14N 33°36' W 118°20'419.1
2018-Jun-20 15:01N 33°40' W 118°17'4 8.8
2018-Jun-20 14:30N 33°44' W 118°16'0 0.1
2018-Jun-20 14:00N 33°44' W 118°16'0 0.0
2018-Jun-19 23:48N 33°44' W 118°16'2 8.0
2018-Jun-19 23:30N 33°42' W 118°15'10 1.3
2018-Jun-19 15:21N 33°34' W 118°23'719.1
2018-Jun-19 15:00N 33°39' W 118°18'510.7
2018-Jun-19 14:30N 33°44' W 118°16'0 0.0
2018-Jun-19 14:01N 33°44' W 118°16'0 0.0
2018-Jun-18 23:44N 33°44' W 118°16'2 9.0
2018-Jun-18 23:30N 33°42' W 118°15'8 1.0
2018-Jun-18 15:20N 33°36' W 118°21'618.5
2018-Jun-18 15:00N 33°41' W 118°16'3 6.5
2018-Jun-18 14:30N 33°44' W 118°16'0 0.1
2018-Jun-18 14:00N 33°44' W 118°16'0 0.0
2018-Jun-17 21:24N 33°44' W 118°16'410.0
2018-Jun-17 21:00N 33°40' W 118°17'9 0.2
2018-Jun-15 22:08N 33°33' W 118°24'217.8
2018-Jun-15 22:00N 33°35' W 118°22'917.4
2018-Jun-15 21:30N 33°42' W 118°16'3 5.1
2018-Jun-15 21:00N 33°44' W 118°16'4 7.4
2018-Jun-15 20:30N 33°40' W 118°16'918.1
2018-Jun-15 20:00N 33°33' W 118°23'2 0.4
2018-Jun-15 15:59N 33°32' W 118°25'817.0
2018-Jun-15 15:30N 33°38' W 118°19'612.2
2018-Jun-15 15:00N 33°44' W 118°16'0 0.1
2018-Jun-15 14:30N 33°44' W 118°16'0 0.0
2018-Jun-14 23:55N 33°44' W 118°16'410.8
2018-Jun-14 23:31N 33°40' W 118°17'1117.3
2018-Jun-14 22:51N 33°31' W 118°26'5 1.8
2018-Jun-14 20:05N 33°27' W 118°29'0 0.1
2018-Jun-14 20:00N 33°27' W 118°29'0 0.0
2018-Jun-14 19:30N 33°27' W 118°29'0 0.0
2018-Jun-14 18:09N 33°27' W 118°29'0 0.0
2018-Jun-14 17:53N 33°27' W 118°29'9 3.7
2018-Jun-14 15:28N 33°34' W 118°23'817.1
2018-Jun-14 15:00N 33°40' W 118°17'4 7.6
2018-Jun-14 14:30N 33°44' W 118°16'0 0.1
2018-Jun-14 14:01N 33°44' W 118°16'0 0.0
2018-Jun-13 23:59N 33°44' W 118°16'612.7
2018-Jun-13 23:30N 33°38' W 118°18'15 1.9
2018-Jun-13 15:50N 33°27' W 118°29'816.6
2018-Jun-13 15:20N 33°33' W 118°23'618.4
2018-Jun-13 15:00N 33°38' W 118°19'612.7
2018-Jun-13 14:30N 33°44' W 118°16'0 0.0
2018-Jun-12 23:51N 33°44' W 118°16'3 9.3
2018-Jun-12 23:30N 33°41' W 118°16'1119.5
2018-Jun-12 22:57N 33°33' W 118°24'4 0.6
2018-Jun-12 15:52N 33°29' W 118°28'718.5
2018-Jun-12 15:31N 33°34' W 118°23'918.3
2018-Jun-12 15:00N 33°42' W 118°16'2 5.0
2018-Jun-12 14:30N 33°44' W 118°16'0 0.0
2018-Jun-12 14:00N 33°44' W 118°16'0 0.0
2018-Jun-11 23:45N 33°44' W 118°16'2 9.3
2018-Jun-11 23:31N 33°42' W 118°15'1020.2
2018-Jun-11 23:00N 33°34' W 118°22'915.4
2018-Jun-11 22:24N 33°27' W 118°29'0 0.0
2018-Jun-11 21:58N 33°27' W 118°29'0 0.0
2018-Jun-11 21:29N 33°27' W 118°29'0 0.0
2018-Jun-11 16:06N 33°27' W 118°29'0 0.0
2018-Jun-11 16:00N 33°27' W 118°29'713.3
2018-Jun-11 15:28N 33°33' W 118°24'817.2
2018-Jun-11 15:00N 33°39' W 118°18'  
Track history (hours):
 
Tides and Currents Weather Stations Pressure Air Temp Water Temp Dewpoint Dewpoint Depression Visibility Wind Speed Wind Dir Waves Ship Positions

MiSS Christi

Owner: MISS CHRISTI INC, WEST HILLS, CA. More information available from US FCC via Universal Licensing System and Coast Guard Vessel Documentation Center.

Last reported at 2018-Jun-20 15:14 UTC. Time now 2018-Jun-20 19:05 UTC.
Position N 33°36' W 118°20'.

Length 15 m; draft 1.5 m.

Type: Passenger vessel. MMSI: 367311590.

Date/timePositionNaut miles runAvg speedWind from/ knotsBaromVisibWave heightAir tempDewpointWater temp
2018-Jun-20 15:14N 33°36' W 118°20'419.1
2018-Jun-20 15:01N 33°40' W 118°17'4 8.8
2018-Jun-20 14:30N 33°44' W 118°16'0 0.1
2018-Jun-20 14:00N 33°44' W 118°16'0 0.0
2018-Jun-19 23:48N 33°44' W 118°16'2 8.0
2018-Jun-19 23:30N 33°42' W 118°15'10 1.3
2018-Jun-19 15:21N 33°34' W 118°23'719.1
2018-Jun-19 15:00N 33°39' W 118°18'510.7
2018-Jun-19 14:30N 33°44' W 118°16'0 0.0
2018-Jun-19 14:01N 33°44' W 118°16'0 0.0
2018-Jun-18 23:44N 33°44' W 118°16'2 9.0
2018-Jun-18 23:30N 33°42' W 118°15'8 1.0
2018-Jun-18 15:20N 33°36' W 118°21'618.5
2018-Jun-18 15:00N 33°41' W 118°16'3 6.5
2018-Jun-18 14:30N 33°44' W 118°16'0 0.1
2018-Jun-18 14:00N 33°44' W 118°16'0 0.0
2018-Jun-17 21:24N 33°44' W 118°16'410.0
2018-Jun-17 21:00N 33°40' W 118°17'9 0.2
2018-Jun-15 22:08N 33°33' W 118°24'217.8
2018-Jun-15 22:00N 33°35' W 118°22'917.4
2018-Jun-15 21:30N 33°42' W 118°16'3 5.1
2018-Jun-15 21:00N 33°44' W 118°16'4 7.4
2018-Jun-15 20:30N 33°40' W 118°16'918.1
2018-Jun-15 20:00N 33°33' W 118°23'2 0.4
2018-Jun-15 15:59N 33°32' W 118°25'817.0
2018-Jun-15 15:30N 33°38' W 118°19'612.2
2018-Jun-15 15:00N 33°44' W 118°16'0 0.1
2018-Jun-15 14:30N 33°44' W 118°16'0 0.0
2018-Jun-14 23:55N 33°44' W 118°16'410.8
2018-Jun-14 23:31N 33°40' W 118°17'1117.3
2018-Jun-14 22:51N 33°31' W 118°26'5 1.8
2018-Jun-14 20:05N 33°27' W 118°29'0 0.1
2018-Jun-14 20:00N 33°27' W 118°29'0 0.0
2018-Jun-14 19:30N 33°27' W 118°29'0 0.0
2018-Jun-14 18:09N 33°27' W 118°29'0 0.0
2018-Jun-14 17:53N 33°27' W 118°29'9 3.7
2018-Jun-14 15:28N 33°34' W 118°23'817.1
2018-Jun-14 15:00N 33°40' W 118°17'4 7.6
2018-Jun-14 14:30N 33°44' W 118°16'0 0.1
2018-Jun-14 14:01N 33°44' W 118°16'0 0.0
2018-Jun-13 23:59N 33°44' W 118°16'612.7
2018-Jun-13 23:30N 33°38' W 118°18'15 1.9
2018-Jun-13 15:50N 33°27' W 118°29'816.6
2018-Jun-13 15:20N 33°33' W 118°23'618.4
2018-Jun-13 15:00N 33°38' W 118°19'612.7
2018-Jun-13 14:30N 33°44' W 118°16'0 0.0
2018-Jun-12 23:51N 33°44' W 118°16'3 9.3
2018-Jun-12 23:30N 33°41' W 118°16'1119.5
2018-Jun-12 22:57N 33°33' W 118°24'4 0.6
2018-Jun-12 15:52N 33°29' W 118°28'718.5
2018-Jun-12 15:31N 33°34' W 118°23'918.3
2018-Jun-12 15:00N 33°42' W 118°16'2 5.0
2018-Jun-12 14:30N 33°44' W 118°16'0 0.0
2018-Jun-12 14:00N 33°44' W 118°16'0 0.0
2018-Jun-11 23:45N 33°44' W 118°16'2 9.3
2018-Jun-11 23:31N 33°42' W 118°15'1020.2
2018-Jun-11 23:00N 33°34' W 118°22'915.4
2018-Jun-11 22:24N 33°27' W 118°29'0 0.0
2018-Jun-11 21:58N 33°27' W 118°29'0 0.0
2018-Jun-11 21:29N 33°27' W 118°29'0 0.0
2018-Jun-11 16:06N 33°27' W 118°29'0 0.0
2018-Jun-11 16:00N 33°27' W 118°29'713.3
2018-Jun-11 15:28N 33°33' W 118°24'817.2
2018-Jun-11 15:00N 33°39' W 118°18'  

Dump ship's entire track history